createdAt,value
2023-02-19T00:02:35.000Z,16.05
2023-02-19T00:07:34.000Z,16.66
2023-02-19T00:12:34.000Z,16.02
2023-02-19T00:17:35.000Z,16.47
2023-02-19T00:22:34.000Z,16.63
2023-02-19T00:27:35.000Z,16.85
2023-02-19T00:32:34.000Z,16.28
2023-02-19T00:37:35.000Z,15.44
2023-02-19T00:42:34.000Z,15.64
2023-02-19T00:47:35.000Z,15.41
2023-02-19T00:52:35.000Z,15.04
2023-02-19T00:57:35.000Z,15.04
2023-02-19T01:02:34.000Z,15.13
2023-02-19T01:07:35.000Z,14.47
2023-02-19T01:12:35.000Z,14.22
2023-02-19T01:17:35.000Z,14.05
2023-02-19T01:27:35.000Z,13.27
2023-02-19T01:32:34.000Z,12.78
2023-02-19T01:37:34.000Z,12.66
2023-02-19T01:42:35.000Z,12.01
2023-02-19T01:47:35.000Z,12.25
2023-02-19T01:52:35.000Z,11.94
2023-02-19T01:57:34.000Z,11.51
2023-02-19T02:02:35.000Z,11.32
2023-02-19T02:07:35.000Z,11.2
2023-02-19T02:12:35.000Z,10.73
2023-02-19T02:17:34.000Z,10.73
2023-02-19T02:22:35.000Z,10.99
2023-02-19T02:27:34.000Z,10.84
2023-02-19T02:32:35.000Z,10.21
2023-02-19T02:37:34.000Z,10.8
2023-02-19T02:42:35.000Z,10.55
2023-02-19T02:47:35.000Z,10.56
2023-02-19T02:52:35.000Z,10.17
2023-02-19T02:57:35.000Z,11.44
2023-02-19T03:02:34.000Z,11.37
2023-02-19T03:07:35.000Z,11.73
2023-02-19T03:12:35.000Z,11.57
2023-02-19T03:17:35.000Z,11.57
2023-02-19T03:22:35.000Z,11.06
2023-02-19T03:27:35.000Z,11.57
2023-02-19T03:32:34.000Z,11.57
2023-02-19T03:37:35.000Z,11.26
2023-02-19T03:42:35.000Z,12.53
2023-02-19T03:47:34.000Z,12.76
2023-02-19T03:52:35.000Z,12.85
2023-02-19T03:57:34.000Z,13.17
2023-02-19T04:02:35.000Z,12.5
2023-02-19T04:07:34.000Z,12.71
2023-02-19T04:12:35.000Z,13.43
2023-02-19T04:17:34.000Z,14.13
2023-02-19T04:22:35.000Z,13.87
2023-02-19T04:27:34.000Z,13.64
2023-02-19T04:32:35.000Z,12.96
2023-02-19T04:37:34.000Z,13.4
2023-02-19T04:42:35.000Z,12.35
2023-02-19T04:47:35.000Z,11.83
2023-02-19T04:52:34.000Z,11.83
2023-02-19T04:57:35.000Z,12.35
2023-02-19T05:07:35.000Z,11.71
2023-02-19T05:17:34.000Z,11.44
2023-02-19T05:22:35.000Z,11.52
2023-02-19T05:27:35.000Z,12.55
2023-02-19T05:32:35.000Z,11.51
2023-02-19T05:37:34.000Z,10.83
2023-02-19T05:42:35.000Z,11.59
2023-02-19T05:47:35.000Z,11.35
2023-02-19T05:52:35.000Z,10.25
2023-02-19T05:57:36.000Z,11.5
2023-02-19T06:02:34.000Z,10.42
2023-02-19T06:07:35.000Z,10.42
2023-02-19T06:12:34.000Z,10.78
2023-02-19T06:17:35.000Z,10.63
2023-02-19T06:22:34.000Z,10.68
2023-02-19T06:27:35.000Z,10.43
2023-02-19T06:32:35.000Z,10.01
2023-02-19T06:37:35.000Z,10.13
2023-02-19T06:42:35.000Z,10.04
2023-02-19T06:47:35.000Z,10.29
2023-02-19T06:52:35.000Z,10.08
2023-02-19T06:57:35.000Z,10.14
2023-02-19T07:02:35.000Z,10.93
2023-02-19T07:07:35.000Z,10.43
2023-02-19T07:12:34.000Z,10.36
2023-02-19T07:17:35.000Z,10.78
2023-02-19T07:22:34.000Z,10.78
2023-02-19T07:27:35.000Z,11.13
2023-02-19T07:32:34.000Z,10.78
2023-02-19T07:37:35.000Z,10.82
2023-02-19T07:42:34.000Z,10.01
2023-02-19T07:47:35.000Z,10.92
2023-02-19T07:52:35.000Z,10.27
2023-02-19T08:02:35.000Z,10.59
2023-02-19T08:07:34.000Z,9.98
2023-02-19T08:12:35.000Z,10.08
2023-02-19T08:17:34.000Z,10.2
2023-02-19T08:22:35.000Z,10
2023-02-19T08:27:34.000Z,10.06
2023-02-19T08:32:35.000Z,10.06
2023-02-19T08:37:34.000Z,10.59
2023-02-19T08:42:35.000Z,10.09
2023-02-19T08:47:34.000Z,10.77
2023-02-19T08:52:35.000Z,10.71
2023-02-19T08:57:34.000Z,11.26
2023-02-19T09:02:35.000Z,10.88
2023-02-19T09:07:34.000Z,11.19
2023-02-19T09:12:35.000Z,11.41
2023-02-19T09:17:35.000Z,11.65
2023-02-19T09:22:35.000Z,11.68
2023-02-19T09:27:34.000Z,11.06
2023-02-19T09:32:35.000Z,11.52
2023-02-19T09:37:35.000Z,11.43
2023-02-19T09:42:35.000Z,11.43
2023-02-19T09:47:34.000Z,11.57
2023-02-19T09:52:35.000Z,11.8
2023-02-19T09:57:35.000Z,12.13
2023-02-19T10:02:34.000Z,12.19
2023-02-19T10:07:35.000Z,12.44
2023-02-19T10:12:35.000Z,11.89
2023-02-19T10:17:35.000Z,12.16
2023-02-19T10:22:34.000Z,12.21
2023-02-19T10:27:34.000Z,12.45
2023-02-19T10:32:35.000Z,12.79
2023-02-19T10:42:34.000Z,13.45
2023-02-19T10:47:34.000Z,13.32
2023-02-19T10:52:35.000Z,13.23
2023-02-19T10:57:34.000Z,13.65
2023-02-19T11:02:35.000Z,13.1
2023-02-19T11:07:35.000Z,13.83
2023-02-19T11:12:35.000Z,14.22
2023-02-19T11:22:35.000Z,14
2023-02-19T11:27:35.000Z,14
2023-02-19T11:32:35.000Z,14.81
2023-02-19T11:37:34.000Z,14.35
2023-02-19T11:42:34.000Z,13.89
2023-02-19T11:47:34.000Z,13.39
2023-02-19T11:52:35.000Z,12.81
2023-02-19T11:57:34.000Z,12.26
2023-02-19T12:02:35.000Z,12.71
2023-02-19T12:07:35.000Z,13
2023-02-19T12:12:35.000Z,12.68
2023-02-19T12:17:35.000Z,12.11
2023-02-19T12:22:35.000Z,12.28
2023-02-19T12:27:35.000Z,12.65
2023-02-19T12:32:35.000Z,12.05
2023-02-19T12:37:35.000Z,12.11
2023-02-19T12:42:35.000Z,12.11
2023-02-19T12:47:35.000Z,12.77
2023-02-19T12:52:35.000Z,12.41
2023-02-19T12:57:34.000Z,12.92
2023-02-19T13:07:35.000Z,12.87
2023-02-19T13:12:34.000Z,12.77
2023-02-19T13:17:34.000Z,12.93
2023-02-19T13:22:34.000Z,13.17
2023-02-19T13:27:35.000Z,13.35
2023-02-19T13:32:35.000Z,13.87
2023-02-19T13:37:35.000Z,13.85
2023-02-19T13:42:35.000Z,13.85
2023-02-19T13:47:35.000Z,13.87
2023-02-19T13:52:34.000Z,13.74
2023-02-19T13:57:35.000Z,14.65
2023-02-19T14:02:34.000Z,14.55
2023-02-19T14:12:35.000Z,15.22
2023-02-19T14:17:35.000Z,16.14
2023-02-19T14:22:35.000Z,17.04
2023-02-19T14:27:35.000Z,17.42
2023-02-19T14:32:35.000Z,17.44
2023-02-19T14:42:35.000Z,18.45
2023-02-19T14:52:34.000Z,17.47
2023-02-19T14:57:35.000Z,17.61
2023-02-19T15:02:35.000Z,17.25
2023-02-19T15:07:35.000Z,17.36
2023-02-19T15:12:34.000Z,17.2
2023-02-19T15:22:34.000Z,16.51
2023-02-19T15:27:35.000Z,17.1
2023-02-19T15:32:35.000Z,16.88
2023-02-19T15:37:35.000Z,17.12
2023-02-19T15:42:34.000Z,16.91
2023-02-19T15:47:35.000Z,17.92
2023-02-19T15:52:35.000Z,19.44
2023-02-19T15:57:35.000Z,19.64
2023-02-19T16:02:37.000Z,20.76
2023-02-19T16:07:35.000Z,21.99
2023-02-19T16:12:34.000Z,22.04
2023-02-19T16:17:35.000Z,20.08
2023-02-19T16:22:34.000Z,18.16
2023-02-19T16:27:35.000Z,18.16
2023-02-19T16:32:35.000Z,17.7
2023-02-19T16:37:35.000Z,17.4
2023-02-19T16:42:34.000Z,16.64
2023-02-19T16:47:35.000Z,16.04
2023-02-19T16:52:35.000Z,15.79
2023-02-19T16:57:35.000Z,16.56
2023-02-19T17:02:35.000Z,15.77
2023-02-19T17:07:34.000Z,15.88
2023-02-19T17:12:35.000Z,16.22
2023-02-19T17:17:34.000Z,16.35
2023-02-19T17:22:35.000Z,16.4
2023-02-19T17:27:34.000Z,16.92
2023-02-19T17:32:35.000Z,17.62
2023-02-19T17:37:35.000Z,17.28
2023-02-19T17:42:34.000Z,16.74
2023-02-19T17:52:35.000Z,17.95
2023-02-19T17:57:35.000Z,17.56
2023-02-19T18:02:34.000Z,17.97
2023-02-19T18:07:35.000Z,17.69
2023-02-19T18:12:34.000Z,18.45
2023-02-19T18:17:35.000Z,17.78
2023-02-19T18:22:34.000Z,17.78
2023-02-19T18:27:35.000Z,18.25
2023-02-19T18:32:34.000Z,18.04
2023-02-19T18:37:35.000Z,18.18
2023-02-19T18:42:34.000Z,18.73
2023-02-19T18:47:35.000Z,18.47
2023-02-19T18:52:35.000Z,19.3
2023-02-19T19:02:35.000Z,18.9
2023-02-19T19:07:34.000Z,18.62
2023-02-19T19:12:35.000Z,19.98
2023-02-19T19:17:34.000Z,20.33
2023-02-19T19:22:35.000Z,20.14
2023-02-19T19:27:35.000Z,21.28
2023-02-19T19:32:35.000Z,21.66
2023-02-19T19:37:38.000Z,21.81
2023-02-19T19:42:34.000Z,20.91
2023-02-19T19:47:35.000Z,20.77
2023-02-19T19:52:34.000Z,20.77
2023-02-19T20:02:35.000Z,19.86
2023-02-19T20:07:35.000Z,20.51
2023-02-19T20:17:35.000Z,19.84
2023-02-19T20:22:34.000Z,20.16
2023-02-19T20:27:35.000Z,20.45
2023-02-19T20:32:34.000Z,19.98
2023-02-19T20:37:35.000Z,19.3
2023-02-19T20:42:34.000Z,19.51
2023-02-19T20:47:35.000Z,19.31
2023-02-19T20:52:34.000Z,18.82
2023-02-19T20:57:35.000Z,18.86
2023-02-19T21:02:35.000Z,19.34
2023-02-19T21:07:35.000Z,17.69
2023-02-19T21:12:35.000Z,18.74
2023-02-19T21:17:35.000Z,18.77
2023-02-19T21:22:35.000Z,18.56
2023-02-19T21:27:35.000Z,18.56
2023-02-19T21:32:35.000Z,20.62
2023-02-19T21:37:34.000Z,19.9
2023-02-19T21:42:35.000Z,21.1
2023-02-19T21:47:34.000Z,21.09
2023-02-19T21:52:35.000Z,21.45
2023-02-19T21:57:34.000Z,23.26
2023-02-19T22:02:35.000Z,25.91
2023-02-19T22:07:35.000Z,26.84
2023-02-19T22:12:35.000Z,26.39
2023-02-19T22:17:35.000Z,25.41
2023-02-19T22:22:34.000Z,24.07
2023-02-19T22:27:35.000Z,22.95
2023-02-19T22:32:34.000Z,22.56
2023-02-19T22:37:35.000Z,21.94
2023-02-19T22:42:34.000Z,21.94
2023-02-19T22:47:35.000Z,20.48
2023-02-19T22:52:34.000Z,19.22
2023-02-19T23:02:35.000Z,20.31
2023-02-19T23:07:34.000Z,20.61
2023-02-19T23:12:35.000Z,19.94
2023-02-19T23:17:35.000Z,19.32
2023-02-19T23:22:35.000Z,19.58
2023-02-19T23:32:34.000Z,19.16
2023-02-19T23:37:35.000Z,18.93
2023-02-19T23:42:34.000Z,19.11
2023-02-19T23:47:35.000Z,17.4
2023-02-19T23:52:34.000Z,18.3
2023-02-19T23:57:35.000Z,18.18
